createdAt,value
2019-02-04T00:01:21.387Z,75.61
2019-02-04T00:03:49.568Z,75.49
2019-02-04T00:06:17.773Z,75.62
2019-02-04T00:08:45.954Z,75.61
2019-02-04T00:11:14.146Z,75.56
2019-02-04T00:13:42.346Z,75.45
2019-02-04T00:16:10.522Z,75.54
2019-02-04T00:18:38.704Z,75.41
2019-02-04T00:21:06.895Z,75.20
2019-02-04T00:23:35.076Z,75.12
2019-02-04T00:26:03.267Z,75.14
2019-02-04T00:28:31.449Z,75.23
2019-02-04T00:30:59.629Z,75.09
2019-02-04T00:33:27.838Z,74.92
2019-02-04T00:35:56.310Z,75.01
2019-02-04T00:38:24.494Z,74.93
2019-02-04T00:40:52.782Z,75.10
2019-02-04T00:43:20.971Z,75.07
2019-02-04T00:45:49.168Z,74.87
2019-02-04T00:48:17.358Z,74.90
2019-02-04T00:50:45.625Z,74.85
2019-02-04T00:53:13.822Z,74.77
2019-02-04T00:55:42.017Z,74.82
2019-02-04T00:58:10.215Z,74.54
2019-02-04T01:00:38.405Z,74.86
2019-02-04T01:03:06.584Z,74.82
2019-02-04T01:05:34.774Z,74.79
2019-02-04T01:08:03.242Z,74.61
2019-02-04T01:10:31.518Z,74.67
2019-02-04T01:12:59.700Z,74.73
2019-02-04T01:15:27.954Z,74.61
2019-02-04T01:17:56.131Z,74.62
2019-02-04T01:20:29.921Z,74.53
2019-02-04T01:22:58.321Z,74.36
2019-02-04T01:25:26.510Z,74.25
2019-02-04T01:27:54.711Z,74.29
2019-02-04T01:30:40.625Z,74.12
2019-02-04T01:33:09.014Z,74.22
2019-02-04T01:35:37.207Z,74.37
2019-02-04T01:38:05.397Z,74.09
2019-02-04T01:40:33.583Z,74.10
2019-02-04T01:43:01.778Z,74.00
2019-02-04T01:45:29.973Z,74.13
2019-02-04T01:47:58.238Z,74.23
2019-02-04T01:50:26.434Z,74.20
2019-02-04T01:52:54.640Z,74.33
2019-02-04T01:55:22.820Z,74.39
2019-02-04T02:00:38.408Z,74.27
2019-02-04T02:03:06.612Z,74.13
2019-02-04T02:05:34.817Z,74.10
2019-02-04T02:08:03.034Z,74.16
2019-02-04T02:10:31.273Z,74.12
2019-02-04T02:12:59.458Z,74.15
2019-02-04T02:15:27.648Z,74.17
2019-02-04T02:17:55.838Z,73.93
2019-02-04T02:23:01.814Z,73.92
2019-02-04T02:25:30.003Z,74.16
2019-02-04T02:27:58.195Z,73.98
2019-02-04T02:30:33.048Z,73.52
2019-02-04T02:33:01.225Z,73.83
2019-02-04T02:35:29.407Z,73.92
2019-02-04T02:37:57.616Z,73.63
2019-02-04T02:41:04.237Z,73.65
2019-02-04T02:43:51.996Z,72.96
2019-02-04T02:46:20.205Z,73.52
2019-02-04T02:48:48.402Z,73.96
2019-02-04T02:51:16.615Z,73.90
2019-02-04T02:53:44.834Z,74.09
2019-02-04T02:56:13.768Z,74.13
2019-02-04T02:58:41.907Z,74.13
2019-02-04T03:01:10.086Z,73.92
2019-02-04T03:03:38.566Z,73.97
2019-02-04T03:06:06.745Z,73.77
2019-02-04T03:08:35.014Z,74.26
2019-02-04T03:11:03.202Z,74.37
2019-02-04T03:13:31.394Z,74.67
2019-02-04T03:15:59.622Z,74.39
2019-02-04T03:18:27.817Z,74.17
2019-02-04T03:20:55.996Z,74.01
2019-02-04T03:23:24.215Z,73.49
2019-02-04T03:25:52.407Z,73.95
2019-02-04T03:28:20.609Z,73.56
2019-02-04T03:30:48.802Z,73.59
2019-02-04T03:33:17.049Z,73.94
2019-02-04T03:35:45.274Z,74.17
2019-02-04T03:38:13.463Z,74.08
2019-02-04T03:40:41.663Z,74.03
2019-02-04T03:43:09.850Z,74.16
2019-02-04T03:45:38.036Z,74.05
2019-02-04T03:48:08.746Z,73.87
2019-02-04T03:50:36.126Z,74.08
2019-02-04T03:53:04.315Z,73.74
2019-02-04T03:55:32.506Z,73.68
2019-02-04T03:58:00.731Z,73.31
2019-02-04T04:03:23.133Z,72.42
2019-02-04T04:05:51.327Z,73.31
2019-02-04T04:08:19.634Z,72.94
2019-02-04T04:10:47.825Z,72.74
2019-02-04T04:13:16.016Z,73.30
2019-02-04T04:15:44.522Z,73.61
2019-02-04T04:18:16.069Z,73.45
2019-02-04T04:20:42.631Z,73.56
2019-02-04T04:23:10.825Z,73.70
2019-02-04T04:25:39.028Z,73.64
2019-02-04T04:28:07.218Z,73.16
2019-02-04T04:30:35.600Z,73.77
2019-02-04T04:33:04.328Z,73.64
2019-02-04T04:35:32.540Z,73.76
2019-02-04T04:38:01.648Z,73.34
2019-02-04T04:40:29.861Z,73.26
2019-02-04T04:42:58.314Z,73.22
2019-02-04T04:45:26.973Z,73.67
2019-02-04T04:47:55.174Z,73.78
2019-02-04T04:50:23.389Z,73.37
2019-02-04T04:52:51.615Z,73.34
2019-02-04T04:55:37.530Z,73.32
2019-02-04T04:58:06.084Z,73.68
2019-02-04T05:00:34.271Z,73.66
2019-02-04T05:03:02.478Z,73.61
2019-02-04T05:05:30.668Z,73.63
2019-02-04T05:07:58.885Z,73.67
2019-02-04T05:10:27.073Z,73.42
2019-02-04T05:12:55.277Z,73.33
2019-02-04T05:15:41.873Z,73.37
2019-02-04T05:18:10.172Z,72.95
2019-02-04T05:20:38.368Z,73.20
2019-02-04T05:23:06.548Z,73.27
2019-02-04T05:25:34.938Z,73.31
2019-02-04T05:31:26.988Z,73.77
2019-02-04T05:33:55.256Z,73.28
2019-02-04T05:36:23.477Z,73.39
2019-02-04T05:38:51.643Z,73.11
2019-02-04T05:41:19.851Z,73.01
2019-02-04T05:43:48.047Z,72.63
2019-02-04T05:46:16.244Z,72.94
2019-02-04T05:48:49.487Z,72.99
2019-02-04T05:51:14.419Z,73.51
2019-02-04T05:53:42.603Z,73.75
2019-02-04T05:56:11.003Z,73.46
2019-02-04T05:58:39.210Z,73.48
2019-02-04T06:01:07.572Z,73.54
2019-02-04T06:03:35.766Z,73.38
2019-02-04T06:06:03.958Z,73.30
2019-02-04T06:08:32.144Z,73.50
2019-02-04T06:11:00.412Z,73.26
2019-02-04T06:13:28.597Z,73.23
2019-02-04T06:15:56.784Z,73.17
2019-02-04T06:18:24.965Z,72.73
2019-02-04T06:20:53.219Z,72.72
2019-02-04T06:23:21.404Z,71.74
2019-02-04T06:25:49.601Z,71.30
2019-02-04T06:28:17.788Z,71.28
2019-02-04T06:30:45.985Z,71.90
2019-02-04T06:33:14.172Z,71.86
2019-02-04T06:35:42.355Z,71.92
2019-02-04T06:38:10.623Z,72.21
2019-02-04T06:40:38.816Z,72.72
2019-02-04T06:43:07.931Z,72.44
2019-02-04T06:45:36.119Z,72.76
2019-02-04T06:48:05.102Z,72.76
2019-02-04T06:50:33.325Z,72.96
2019-02-04T06:53:01.557Z,72.91
2019-02-04T06:55:31.883Z,72.36
2019-02-04T06:58:00.114Z,72.52
2019-02-04T07:00:28.300Z,72.98
2019-02-04T07:02:56.489Z,72.87
2019-02-04T07:05:24.690Z,73.18
2019-02-04T07:07:52.954Z,73.11
2019-02-04T07:10:23.435Z,73.26
2019-02-04T07:12:51.653Z,73.37
2019-02-04T07:15:19.866Z,72.94
2019-02-04T07:17:48.124Z,72.71
2019-02-04T07:20:19.269Z,72.39
2019-02-04T07:22:47.904Z,72.75
2019-02-04T07:25:16.827Z,72.78
2019-02-04T07:27:46.531Z,72.64
2019-02-04T07:30:17.620Z,72.16
2019-02-04T07:32:45.833Z,72.07
2019-02-04T07:35:16.234Z,72.34
2019-02-04T07:37:44.433Z,72.43
2019-02-04T07:40:21.825Z,72.63
2019-02-04T07:42:51.331Z,72.62
2019-02-04T07:45:19.478Z,72.45
2019-02-04T07:47:47.948Z,72.33
2019-02-04T07:50:16.140Z,72.04
2019-02-04T07:52:44.323Z,71.90
2019-02-04T07:55:12.559Z,71.96
2019-02-04T07:57:40.744Z,72.13
2019-02-04T08:00:20.143Z,72.01
2019-02-04T08:02:48.308Z,72.02
2019-02-04T08:05:16.494Z,71.83
2019-02-04T08:07:44.751Z,71.58
2019-02-04T08:10:18.752Z,72.06
2019-02-04T08:12:47.874Z,72.36
2019-02-04T08:15:27.226Z,72.10
2019-02-04T08:17:56.253Z,71.85
2019-02-04T08:20:24.679Z,71.82
2019-02-04T08:22:52.896Z,72.01
2019-02-04T08:25:21.091Z,72.02
2019-02-04T08:27:49.289Z,71.56
2019-02-04T08:30:28.959Z,71.79
2019-02-04T08:33:03.776Z,71.83
2019-02-04T08:35:32.397Z,71.71
2019-02-04T08:38:06.683Z,71.85
2019-02-04T08:40:35.200Z,71.39
2019-02-04T08:43:03.439Z,71.23
2019-02-04T08:45:31.636Z,71.01
2019-02-04T08:47:59.882Z,70.97
2019-02-04T08:50:28.332Z,70.91
2019-02-04T08:52:56.527Z,71.04
2019-02-04T08:55:24.724Z,70.75
2019-02-04T08:57:53.382Z,71.04
2019-02-04T09:00:22.910Z,71.26
2019-02-04T09:02:51.212Z,71.39
2019-02-04T09:05:20.728Z,71.31
2019-02-04T09:07:48.920Z,71.65
2019-02-04T09:10:23.082Z,71.79
2019-02-04T09:12:51.531Z,71.55
2019-02-04T09:15:19.843Z,71.32
2019-02-04T09:17:48.134Z,71.24
2019-02-04T09:20:17.440Z,71.28
2019-02-04T09:22:46.138Z,71.32
2019-02-04T09:25:18.572Z,71.52
2019-02-04T09:27:46.797Z,71.60
2019-02-04T09:30:25.525Z,71.22
2019-02-04T09:32:53.874Z,71.33
2019-02-04T09:35:22.532Z,71.47
2019-02-04T09:37:50.875Z,71.56
2019-02-04T09:40:22.262Z,71.07
2019-02-04T09:42:50.620Z,71.09
2019-02-04T09:45:18.805Z,71.38
2019-02-04T09:47:47.000Z,71.58
2019-02-04T09:50:21.999Z,71.76
2019-02-04T09:52:47.526Z,71.63
2019-02-04T09:55:18.467Z,71.52
2019-02-04T09:57:46.959Z,71.52
2019-02-04T10:00:21.507Z,71.41
2019-02-04T10:02:49.767Z,71.62
2019-02-04T10:05:18.931Z,71.60
2019-02-04T10:07:47.147Z,71.45
2019-02-04T10:10:18.464Z,71.55
2019-02-04T10:12:46.639Z,71.43
2019-02-04T10:15:17.621Z,71.62
2019-02-04T10:17:45.903Z,71.54
2019-02-04T10:20:16.807Z,71.45
2019-02-04T10:22:45.404Z,71.71
2019-02-04T10:25:16.769Z,71.80
2019-02-04T10:27:45.023Z,71.49
2019-02-04T10:30:21.382Z,71.48
2019-02-04T10:32:49.628Z,71.48
2019-02-04T10:35:18.286Z,71.36
2019-02-04T10:37:48.102Z,71.54
2019-02-04T10:40:24.701Z,71.32
2019-02-04T10:42:53.011Z,71.56
2019-02-04T10:45:21.275Z,71.89
2019-02-04T10:47:50.712Z,72.14
2019-02-04T10:50:24.286Z,72.23
2019-02-04T10:52:52.559Z,72.30
2019-02-04T10:55:20.748Z,72.03
2019-02-04T10:57:48.982Z,72.05
2019-02-04T11:00:22.557Z,72.03
2019-02-04T11:02:50.771Z,72.15
2019-02-04T11:05:21.915Z,72.01
2019-02-04T11:07:50.157Z,72.04
2019-02-04T11:10:20.806Z,71.76
2019-02-04T11:12:49.054Z,71.63
2019-02-04T11:15:17.686Z,71.18
2019-02-04T11:17:45.910Z,71.36
2019-02-04T11:20:17.771Z,71.48
2019-02-04T11:22:45.996Z,71.46
2019-02-04T11:25:14.190Z,71.40
2019-02-04T11:27:42.464Z,71.44
2019-02-04T11:30:16.456Z,71.33
2019-02-04T11:32:44.655Z,71.15
2019-02-04T11:35:13.136Z,71.24
2019-02-04T11:37:41.332Z,71.07
2019-02-04T11:40:12.844Z,71.21
2019-02-04T11:42:41.016Z,71.62
2019-02-04T11:45:09.838Z,71.44
2019-02-04T11:47:38.001Z,71.12
2019-02-04T11:50:09.750Z,70.98
2019-02-04T11:52:37.961Z,71.10
2019-02-04T11:55:09.691Z,70.98
2019-02-04T11:57:37.920Z,70.84
2019-02-04T12:00:17.548Z,71.17
2019-02-04T12:02:45.743Z,71.51
2019-02-04T12:05:16.934Z,71.77
2019-02-04T12:07:45.268Z,71.12
2019-02-04T12:10:16.716Z,70.63
2019-02-04T12:12:44.917Z,70.44
2019-02-04T12:15:18.605Z,70.23
2019-02-04T12:17:47.712Z,70.63
2019-02-04T12:20:17.547Z,70.32
2019-02-04T12:22:45.804Z,69.84
2019-02-04T12:25:22.946Z,69.62
2019-02-04T12:27:51.075Z,69.83
2019-02-04T12:30:22.527Z,69.69
2019-02-04T12:32:50.707Z,69.24
2019-02-04T12:35:18.900Z,69.32
2019-02-04T12:37:47.085Z,69.64
2019-02-04T12:40:16.969Z,69.71
2019-02-04T12:42:45.153Z,69.33
2019-02-04T12:45:19.423Z,69.38
2019-02-04T12:47:47.612Z,69.56
2019-02-04T12:50:16.507Z,69.43
2019-02-04T12:52:44.677Z,69.65
2019-02-04T12:55:18.166Z,69.94
2019-02-04T12:57:46.617Z,69.46
2019-02-04T13:00:17.820Z,69.20
2019-02-04T13:02:46.012Z,69.31
2019-02-04T13:05:17.145Z,70.02
2019-02-04T13:07:45.330Z,69.54
2019-02-04T13:10:15.969Z,69.69
2019-02-04T13:12:44.197Z,69.84
2019-02-04T13:15:15.664Z,69.73
2019-02-04T13:17:43.842Z,69.94
2019-02-04T13:20:15.246Z,70.12
2019-02-04T13:22:43.425Z,70.26
2019-02-04T13:25:17.300Z,70.35
2019-02-04T13:27:45.471Z,69.59
2019-02-04T13:30:19.739Z,69.93
2019-02-04T13:32:47.928Z,69.80
2019-02-04T13:35:17.852Z,69.77
2019-02-04T13:37:46.031Z,69.82
2019-02-04T13:40:30.856Z,70.30
2019-02-04T13:42:59.040Z,70.18
2019-02-04T13:45:27.373Z,70.29
2019-02-04T13:47:55.586Z,70.17
2019-02-04T13:50:23.943Z,70.39
2019-02-04T13:52:52.564Z,70.68
2019-02-04T13:55:25.804Z,70.86
2019-02-04T13:57:53.991Z,71.08
2019-02-04T14:00:22.172Z,71.12
2019-02-04T14:02:58.770Z,71.27
2019-02-04T14:05:20.266Z,71.16
2019-02-04T14:07:48.444Z,70.97
2019-02-04T14:10:18.782Z,71.23
2019-02-04T14:12:46.957Z,70.87
2019-02-04T14:15:16.719Z,70.51
2019-02-04T14:17:44.903Z,71.00
2019-02-04T14:20:24.806Z,71.10
2019-02-04T14:22:53.495Z,71.41
2019-02-04T14:25:21.743Z,71.16
2019-02-04T14:27:49.949Z,71.32
2019-02-04T14:30:26.666Z,71.58
2019-02-04T14:32:54.844Z,71.81
2019-02-04T14:35:23.037Z,71.54
2019-02-04T14:37:51.226Z,71.76
2019-02-04T14:40:19.396Z,71.93
2019-02-04T14:42:50.883Z,71.73
2019-02-04T14:45:31.320Z,71.83
2019-02-04T14:48:17.995Z,71.84
2019-02-04T14:51:07.219Z,71.33
2019-02-04T14:54:02.802Z,71.44
2019-02-04T14:56:49.041Z,71.44
2019-02-04T14:59:23.448Z,71.11
2019-02-04T15:02:24.598Z,71.02
2019-02-04T15:05:01.966Z,70.63
2019-02-04T15:08:04.568Z,71.21
2019-02-04T15:10:41.823Z,71.05
2019-02-04T15:13:28.195Z,71.20
2019-02-04T15:16:11.165Z,71.85
2019-02-04T15:18:57.606Z,72.11
2019-02-04T15:21:34.847Z,71.88
2019-02-04T15:24:09.215Z,72.08
2019-02-04T15:26:46.211Z,71.69
2019-02-04T15:29:20.352Z,71.79
2019-02-04T15:31:54.831Z,71.54
2019-02-04T15:34:32.172Z,72.31
2019-02-04T15:37:12.471Z,72.52
2019-02-04T15:39:49.563Z,72.37
2019-02-04T15:42:31.979Z,72.18
2019-02-04T15:45:18.163Z,72.63
2019-02-04T15:47:49.739Z,73.17
2019-02-04T15:50:23.965Z,73.99
2019-02-04T15:52:52.194Z,74.03
2019-02-04T15:55:20.407Z,74.44
2019-02-04T15:57:48.611Z,74.20
2019-02-04T16:00:16.821Z,74.43
2019-02-04T16:02:46.983Z,74.50
2019-02-04T16:05:15.249Z,74.55
2019-02-04T16:07:43.554Z,74.55
2019-02-04T16:10:14.487Z,74.66
2019-02-04T16:12:42.715Z,74.94
2019-02-04T16:15:12.901Z,74.88
2019-02-04T16:17:41.134Z,74.78
2019-02-04T16:20:21.001Z,75.05
2019-02-04T16:22:58.041Z,75.13
2019-02-04T16:25:19.169Z,75.39
2019-02-04T16:27:47.354Z,75.38
2019-02-04T16:30:17.689Z,75.43
2019-02-04T16:32:45.871Z,75.37
2019-02-04T16:35:16.385Z,75.34
2019-02-04T16:37:44.563Z,75.47
2019-02-04T16:40:15.111Z,75.36
2019-02-04T16:42:43.255Z,75.28
2019-02-04T16:45:13.582Z,75.25
2019-02-04T16:47:41.763Z,75.08
2019-02-04T16:50:18.852Z,75.02
2019-02-04T16:52:48.180Z,74.70
2019-02-04T16:55:16.429Z,74.78
2019-02-04T16:57:45.079Z,74.73
2019-02-04T17:00:22.898Z,74.55
2019-02-04T17:02:51.053Z,74.58
2019-02-04T17:05:20.282Z,74.54
2019-02-04T17:07:49.415Z,74.48
2019-02-04T17:10:20.885Z,74.09
2019-02-04T17:12:49.109Z,74.43
2019-02-04T17:15:17.300Z,74.66
2019-02-04T17:17:45.757Z,74.89
2019-02-04T17:20:28.865Z,74.63
2019-02-04T17:22:57.079Z,74.75
2019-02-04T17:25:25.292Z,74.73
2019-02-04T17:27:53.480Z,74.58
2019-02-04T17:30:24.143Z,74.51
2019-02-04T17:32:52.322Z,74.47
2019-02-04T17:35:20.724Z,74.34
2019-02-04T17:37:48.903Z,74.33
2019-02-04T17:40:24.253Z,74.31
2019-02-04T17:42:53.675Z,74.11
2019-02-04T17:45:21.868Z,74.04
2019-02-04T17:47:50.995Z,74.32
2019-02-04T17:50:20.520Z,74.39
2019-02-04T17:52:49.043Z,74.06
2019-02-04T17:55:19.834Z,74.05
2019-02-04T17:57:48.017Z,74.24
2019-02-04T18:00:36.583Z,74.11
2019-02-04T18:03:05.027Z,74.11
2019-02-04T18:05:33.276Z,74.06
2019-02-04T18:08:01.457Z,74.23
2019-02-04T18:10:30.018Z,74.13
2019-02-04T18:12:58.226Z,74.19
2019-02-04T18:15:26.463Z,74.20
2019-02-04T18:17:54.615Z,74.20
2019-02-04T18:20:22.797Z,74.25
2019-02-04T18:22:50.982Z,73.89
2019-02-04T18:25:22.689Z,73.78
2019-02-04T18:27:50.875Z,73.94
2019-02-04T18:30:26.152Z,74.09
2019-02-04T18:32:54.357Z,74.48
2019-02-04T18:35:22.918Z,74.84
2019-02-04T18:37:51.102Z,74.82
2019-02-04T18:40:24.028Z,74.60
2019-02-04T18:42:52.692Z,74.37
2019-02-04T18:45:25.932Z,74.32
2019-02-04T18:47:55.175Z,74.21
2019-02-04T18:50:23.966Z,74.04
2019-02-04T18:52:52.159Z,73.83
2019-02-04T18:55:31.620Z,73.98
2019-02-04T18:57:59.801Z,74.08
2019-02-04T19:00:30.389Z,74.13
2019-02-04T19:02:59.111Z,74.16
2019-02-04T19:05:27.297Z,74.22
2019-02-04T19:07:55.472Z,74.31
2019-02-04T19:10:23.929Z,74.36
2019-02-04T19:12:52.310Z,74.25
2019-02-04T19:15:23.079Z,74.15
2019-02-04T19:17:52.099Z,74.24
2019-02-04T19:20:23.628Z,74.33
2019-02-04T19:22:52.005Z,74.00
2019-02-04T19:25:21.448Z,73.91
2019-02-04T19:27:50.676Z,73.76
2019-02-04T19:30:24.927Z,73.67
2019-02-04T19:32:53.584Z,73.71
2019-02-04T19:35:21.797Z,73.75
2019-02-04T19:37:49.977Z,73.65
2019-02-04T19:40:18.697Z,73.68
2019-02-04T19:42:46.935Z,73.86
2019-02-04T19:45:17.651Z,73.88
2019-02-04T19:47:45.867Z,73.59
2019-02-04T19:50:19.988Z,73.88
2019-02-04T19:52:48.191Z,73.75
2019-02-04T19:55:16.365Z,73.47
2019-02-04T19:57:44.568Z,73.79
2019-02-04T20:00:23.629Z,74.21
2019-02-04T20:02:52.653Z,74.12
2019-02-04T20:05:31.823Z,74.15
2019-02-04T20:08:00.140Z,74.30
2019-02-04T20:10:31.979Z,74.43
2019-02-04T20:13:00.158Z,74.20
2019-02-04T20:15:29.665Z,74.13
2019-02-04T20:17:57.855Z,74.40
2019-02-04T20:20:26.174Z,74.41
2019-02-04T20:22:54.539Z,74.59
2019-02-04T20:25:28.076Z,74.42
2019-02-04T20:27:56.351Z,74.35
2019-02-04T20:30:44.633Z,74.38
2019-02-04T20:33:03.349Z,74.47
2019-02-04T20:35:31.540Z,74.58
2019-02-04T20:37:59.960Z,74.40
2019-02-04T20:40:28.151Z,74.26
2019-02-04T20:42:56.380Z,74.30
2019-02-04T20:45:26.266Z,74.83
2019-02-04T20:47:58.144Z,74.93
2019-02-04T20:50:32.189Z,74.64
2019-02-04T20:53:00.387Z,74.44
2019-02-04T20:55:28.635Z,74.40
2019-02-04T20:57:57.882Z,73.90
2019-02-04T21:00:29.654Z,74.10
2019-02-04T21:02:57.899Z,74.38
2019-02-04T21:05:26.161Z,74.43
2019-02-04T21:07:54.350Z,73.77
2019-02-04T21:10:28.556Z,73.62
2019-02-04T21:12:57.004Z,73.88
2019-02-04T21:15:25.437Z,73.81
2019-02-04T21:17:54.549Z,74.12
2019-02-04T21:20:25.175Z,74.31
2019-02-04T21:22:53.374Z,74.45
2019-02-04T21:25:21.611Z,74.72
2019-02-04T21:27:50.170Z,74.34
2019-02-04T21:30:29.902Z,74.49
2019-02-04T21:32:58.088Z,74.72
2019-02-04T21:35:26.345Z,74.45
2019-02-04T21:37:54.522Z,74.42
2019-02-04T21:40:23.598Z,74.37
2019-02-04T21:42:52.737Z,74.42
2019-02-04T21:45:23.224Z,74.42
2019-02-04T21:47:51.403Z,74.49
2019-02-04T21:50:27.359Z,74.45
2019-02-04T21:52:56.507Z,74.46
2019-02-04T21:55:27.077Z,74.49
2019-02-04T21:57:56.233Z,74.63
2019-02-04T22:00:32.571Z,74.50
2019-02-04T22:03:00.755Z,74.47
2019-02-04T22:05:31.954Z,74.59
2019-02-04T22:08:00.573Z,74.50
2019-02-04T22:10:30.107Z,74.38
2019-02-04T22:12:58.930Z,74.49
2019-02-04T22:15:27.129Z,74.55
2019-02-04T22:17:55.322Z,74.39
2019-02-04T22:20:23.508Z,74.33
2019-02-04T22:22:51.704Z,74.82
2019-02-04T22:25:21.730Z,74.71
2019-02-04T22:27:49.921Z,74.80
2019-02-04T22:30:29.118Z,74.67
2019-02-04T22:32:57.295Z,74.76
2019-02-04T22:35:26.546Z,74.80
2019-02-04T22:37:54.717Z,75.06
2019-02-04T22:40:25.659Z,75.04
2019-02-04T22:42:53.846Z,75.01
2019-02-04T22:45:22.044Z,75.01
2019-02-04T22:47:50.231Z,74.98
2019-02-04T22:50:23.664Z,74.95
2019-02-04T22:52:51.874Z,75.05
2019-02-04T22:55:31.036Z,75.10
2019-02-04T22:57:49.951Z,75.19
2019-02-04T23:00:34.830Z,75.19
2019-02-04T23:03:03.018Z,75.39
2019-02-04T23:05:31.477Z,75.44
2019-02-04T23:07:59.663Z,75.35
2019-02-04T23:10:27.870Z,75.40
2019-02-04T23:12:56.057Z,75.46
2019-02-04T23:15:24.250Z,75.35
2019-02-04T23:17:52.436Z,75.51
2019-02-04T23:20:20.623Z,75.53
2019-02-04T23:22:48.992Z,75.42
2019-02-04T23:25:17.167Z,75.41
2019-02-04T23:27:45.355Z,75.56
2019-02-04T23:30:16.482Z,75.69
2019-02-04T23:32:44.663Z,75.69
2019-02-04T23:35:12.851Z,75.67
2019-02-04T23:37:41.209Z,75.72
2019-02-04T23:40:11.695Z,75.58
2019-02-04T23:42:39.878Z,75.64
2019-02-04T23:45:09.709Z,75.67
2019-02-04T23:47:37.905Z,75.69
2019-02-04T23:50:11.925Z,75.52
2019-02-04T23:52:40.172Z,75.48
2019-02-04T23:55:10.290Z,75.46
2019-02-04T23:57:38.473Z,75.47
